Date,TemperatureHighF,TemperatureAvgF,TemperatureLowF,DewpointHighF,DewpointAvgF,DewpointLowF,HumidityHigh,HumidityAvg,HumidityLow,PressureMaxIn,PressureMinIn,WindSpeedMaxMPH,WindSpeedAvgMPH,GustSpeedMaxMPH,PrecipitationSumIn
2013-4-1,70.5,56.5,43.9,49.1,37.3,32.8,82,53,26,29.95,29.79,4,1,7,0.00
2013-4-2,61.7,50.4,36.5,29.0,18.9,10.9,66,32,14,30.08,29.98,3,1,6,0.00
2013-4-3,64.6,51.8,41.5,25.3,20.0,15.3,41,29,21,30.09,29.99,3,1,5,0.00
2013-4-4,51.6,43.8,40.8,36.6,32.9,21.7,77,66,31,30.04,29.83,4,1,6,0.74
2013-4-5,63.7,51.2,42.6,39.3,33.9,26.4,79,56,26,29.99,29.83,5,2,8,0.00
2013-4-6,73.6,54.1,33.8,35.8,26.0,13.0,74,42,11,30.09,29.98,4,1,6,0.00
2013-4-7,73.4,59.4,42.6,38.8,32.5,24.4,65,39,22,30.09,29.97,4,2,11,0.00
2013-4-8,75.2,62.1,49.6,46.7,40.6,35.6,69,47,28,30.06,29.97,5,1,8,0.00
2013-4-9,81.3,64.5,49.8,50.9,44.0,40.9,75,51,27,30.14,30.00,4,1,8,0.00
2013-4-10,84.4,68.6,50.9,52.7,45.0,41.5,75,47,24,30.06,29.87,4,1,8,0.00
2013-4-11,78.3,69.4,61.5,58.2,50.3,42.7,82,52,31,29.89,29.59,5,2,10,1.09
2013-4-12,67.6,60.4,47.7,57.3,41.7,26.6,83,54,26,29.87,29.57,4,2,10,0.53
2013-4-13,74.5,53.7,40.1,38.6,31.1,20.1,73,48,15,29.97,29.86,3,1,6,0.00
2013-4-14,64.0,57.9,48.7,45.1,38.7,31.5,69,50,30,29.98,29.84,4,2,9,0.00
2013-4-15,77.5,62.8,55.2,50.3,47.0,44.1,74,59,31,30.03,29.84,3,1,6,0.00
2013-4-16,77.4,69.2,57.4,52.5,51.4,48.6,74,54,40,30.22,30.09,3,1,7,0.00
2013-4-17,84.7,68.9,59.0,56.9,52.8,48.8,78,60,30,30.23,30.04,3,1,6,1.50
2013-4-18,78.8,69.1,59.5,56.9,50.2,42.4,82,55,30,30.06,29.85,4,2,10,0.00
2013-4-19,69.4,56.6,43.3,60.6,44.0,28.2,84,63,48,30.00,29.71,6,2,13,0.89
2013-4-20,63.3,49.2,34.7,29.5,25.0,19.0,68,42,21,30.16,29.97,4,1,7,0.00
2013-4-21,70.0,52.2,34.9,33.6,26.3,18.9,71,42,15,30.27,30.11,3,1,6,0.00
2013-4-22,72.0,59.0,40.1,36.1,29.7,20.4,68,37,15,30.27,30.04,2,1,7,0.00
2013-4-23,74.8,59.7,41.5,38.8,31.5,27.4,64,38,20,30.15,29.97,3,1,6,0.00
2013-4-24,67.5,58.9,51.4,54.9,46.5,38.8,79,64,45,30.08,29.98,3,1,5,0.14
2013-4-25,55.4,46.2,40.3,40.2,33.5,25.8,74,62,32,30.26,30.09,2,0,4,0.00
2013-4-26,73.2,48.3,36.1,42.9,30.6,16.4,69,54,12,30.30,30.17,2,0,6,0.12
2013-4-27,54.9,53.7,53.1,47.0,45.4,43.1,77,73,64,30.30,30.21,2,0,4,0.81
2013-4-28,56.7,55.3,53.6,51.9,49.8,46.1,86,82,72,30.11,29.99,3,1,6,2.50
2013-4-29,71.4,60.0,52.2,53.0,47.6,40.9,86,66,34,30.06,29.94,2,0,6,0.00
2013-4-30,78.3,61.7,45.7,50.5,45.0,38.6,78,57,33,30.13,29.95,3,1,5,0.00